createdAt,value
2022-08-01T01:03:05.174Z,20.1
2022-08-01T02:25:05.050Z,20.1
2022-08-01T02:39:05.089Z,20.1
2022-08-01T02:46:05.064Z,20.1
2022-08-01T02:53:05.068Z,20.1
2022-08-01T03:09:05.068Z,20
2022-08-01T03:12:05.543Z,20
2022-08-01T03:16:05.071Z,19.9
2022-08-01T03:23:05.087Z,20
2022-08-01T03:44:05.052Z,19.9
2022-08-01T03:47:05.068Z,19.9
2022-08-01T04:08:05.118Z,19.8
2022-08-01T04:10:05.058Z,19.8
2022-08-01T04:11:05.056Z,19.9
2022-08-01T04:13:05.054Z,19.8
2022-08-01T04:14:09.264Z,19.8
2022-08-01T04:15:05.125Z,19.8
2022-08-01T04:16:05.059Z,19.7
2022-08-01T04:18:05.051Z,19.8
2022-08-01T04:19:05.053Z,19.8
2022-08-01T04:20:05.081Z,19.8
2022-08-01T04:21:05.054Z,19.7
2022-08-01T04:22:05.274Z,19.7
2022-08-01T04:24:05.073Z,19.7
2022-08-01T04:25:05.077Z,19.7
2022-08-01T04:26:05.087Z,19.7
2022-08-01T04:27:05.060Z,19.7
2022-08-01T04:28:05.072Z,19.7
2022-08-01T04:29:05.064Z,19.7
2022-08-01T04:30:05.061Z,19.7
2022-08-01T04:31:05.065Z,19.8
2022-08-01T04:32:05.433Z,19.8
2022-08-01T04:33:05.068Z,19.8
2022-08-01T04:34:05.058Z,19.8
2022-08-01T04:35:05.068Z,19.8
2022-08-01T04:36:05.259Z,19.8
2022-08-01T04:37:05.063Z,19.8
2022-08-01T04:38:05.061Z,19.8
2022-08-01T04:39:05.058Z,19.8
2022-08-01T04:40:05.064Z,19.8
2022-08-01T04:41:09.174Z,19.8
2022-08-01T04:42:05.418Z,19.9
2022-08-01T04:43:05.067Z,19.8
2022-08-01T04:44:05.062Z,19.8
2022-08-01T04:45:05.080Z,19.8
2022-08-01T04:46:05.166Z,19.8
2022-08-01T04:47:05.066Z,19.8
2022-08-01T04:49:05.143Z,19.8
2022-08-01T04:50:05.069Z,19.8
2022-08-01T04:51:05.090Z,19.8
2022-08-01T04:52:05.354Z,19.8
2022-08-01T04:53:05.063Z,19.8
2022-08-01T04:54:05.076Z,19.8
2022-08-01T04:55:05.072Z,19.8
2022-08-01T04:56:05.074Z,19.8
2022-08-01T04:57:05.076Z,19.8
2022-08-01T04:58:05.075Z,19.8
2022-08-01T04:59:05.079Z,19.8
2022-08-01T05:00:05.082Z,19.8
2022-08-01T05:01:05.173Z,19.8
2022-08-01T05:02:05.401Z,19.9
2022-08-01T05:03:05.096Z,19.9
2022-08-01T05:04:05.079Z,19.9
2022-08-01T05:05:05.075Z,19.9
2022-08-01T05:06:05.074Z,19.9
2022-08-01T05:07:05.079Z,19.9
2022-08-01T05:08:05.085Z,19.9
2022-08-01T05:09:05.082Z,19.9
2022-08-01T05:10:05.691Z,20
2022-08-01T05:11:05.092Z,19.9
2022-08-01T05:12:05.375Z,19.9
2022-08-01T05:13:05.082Z,19.9
2022-08-01T05:14:05.139Z,19.9
2022-08-01T05:15:05.087Z,19.9
2022-08-01T05:16:05.085Z,19.9
2022-08-01T05:17:05.081Z,19.9
2022-08-01T05:18:05.082Z,19.9
2022-08-01T05:19:05.097Z,19.9
2022-08-01T05:20:05.088Z,19.9
2022-08-01T05:21:05.149Z,19.9
2022-08-01T05:22:05.405Z,19.9
2022-08-01T05:23:05.078Z,19.9
2022-08-01T05:24:05.093Z,19.9
2022-08-01T05:25:05.093Z,19.9
2022-08-01T05:26:05.087Z,19.9
2022-08-01T05:27:05.114Z,19.9
2022-08-01T05:28:05.092Z,19.9
2022-08-01T05:29:05.087Z,19.9
2022-08-01T05:30:05.098Z,19.9
2022-08-01T05:31:05.091Z,20
2022-08-01T05:32:05.470Z,20
2022-08-01T05:33:05.092Z,20
2022-08-01T05:34:05.099Z,20.1
2022-08-01T05:35:05.104Z,20.1
2022-08-01T05:36:05.094Z,20.1
2022-08-01T05:37:05.097Z,20.1
2022-08-01T05:38:05.105Z,20.1
2022-08-01T05:39:05.103Z,20.1
2022-08-01T05:40:05.096Z,20.1
2022-08-01T05:41:05.091Z,20.1
2022-08-01T05:42:05.375Z,20.1
2022-08-01T05:43:05.089Z,20.1
2022-08-01T05:44:05.105Z,20.1
2022-08-01T05:45:05.096Z,20.1
2022-08-01T05:46:05.098Z,20.2
2022-08-01T05:47:05.108Z,20.2
2022-08-01T05:48:05.092Z,20.2
2022-08-01T05:49:05.156Z,20.2
2022-08-01T05:50:05.104Z,20.3
2022-08-01T05:51:05.100Z,20.3
2022-08-01T05:52:05.427Z,20.3
2022-08-01T05:53:05.105Z,20.3
2022-08-01T05:54:05.099Z,20.2
2022-08-01T05:55:05.103Z,20.2
2022-08-01T05:56:05.132Z,20.2
2022-08-01T05:57:05.143Z,20.3
2022-08-01T05:58:05.111Z,20.2
2022-08-01T05:59:05.107Z,20.3
2022-08-01T06:00:05.109Z,20.3
2022-08-01T06:01:05.107Z,20.3
2022-08-01T06:02:05.518Z,20.3
2022-08-01T06:03:05.112Z,20.3
2022-08-01T06:04:05.106Z,20.3
2022-08-01T06:05:05.126Z,20.3
2022-08-01T06:06:05.109Z,20.2
2022-08-01T06:07:05.119Z,20.3
2022-08-01T06:08:05.177Z,20.3
2022-08-01T06:09:05.111Z,20.3
2022-08-01T06:10:05.115Z,20.3
2022-08-01T06:11:05.112Z,20.3
2022-08-01T06:12:05.413Z,20.4
2022-08-01T06:13:05.108Z,20.4
2022-08-01T06:14:05.119Z,20.4
2022-08-01T06:15:05.166Z,20.4
2022-08-01T06:16:05.120Z,20.4
2022-08-01T06:17:05.117Z,20.4
2022-08-01T06:18:05.123Z,20.5
2022-08-01T06:19:05.120Z,20.5
2022-08-01T06:20:05.122Z,20.5
2022-08-01T06:21:05.117Z,20.6
2022-08-01T06:22:05.500Z,20.6
2022-08-01T06:23:13.650Z,20.6
2022-08-01T06:24:05.120Z,20.7
2022-08-01T06:25:05.123Z,20.7
2022-08-01T06:26:05.119Z,20.7
2022-08-01T06:27:05.124Z,20.8
2022-08-01T06:28:05.127Z,20.7
2022-08-01T06:29:05.186Z,20.8
2022-08-01T06:30:05.126Z,20.9
2022-08-01T06:31:05.123Z,20.9
2022-08-01T06:32:05.337Z,21
2022-08-01T06:33:05.131Z,21
2022-08-01T06:34:05.125Z,21.1
2022-08-01T06:35:05.131Z,21.1
2022-08-01T06:36:05.127Z,21.2
2022-08-01T06:37:06.874Z,21.2
2022-08-01T06:38:05.129Z,21.3
2022-08-01T06:39:05.127Z,21.3
2022-08-01T06:40:05.123Z,21.4
2022-08-01T06:41:05.130Z,21.5
2022-08-01T06:42:05.447Z,21.5
2022-08-01T06:43:05.192Z,21.5
2022-08-01T06:44:05.140Z,21.6
2022-08-01T06:45:05.133Z,21.7
2022-08-01T06:46:05.133Z,21.7
2022-08-01T06:47:05.126Z,21.8
2022-08-01T06:48:05.141Z,21.8
2022-08-01T06:49:05.238Z,21.9
2022-08-01T06:50:05.190Z,21.9
2022-08-01T06:51:05.139Z,21.9
2022-08-01T06:52:05.539Z,21.9
2022-08-01T06:53:05.136Z,22
2022-08-01T06:54:05.144Z,22
2022-08-01T06:55:05.139Z,22
2022-08-01T06:56:05.161Z,22
2022-08-01T06:57:05.193Z,22
2022-08-01T06:58:05.136Z,21.9
2022-08-01T07:00:05.150Z,22
2022-08-01T07:01:05.313Z,21.9
2022-08-01T07:02:05.446Z,21.9
2022-08-01T07:03:05.147Z,21.9
2022-08-01T07:04:05.204Z,21.9
2022-08-01T07:05:05.148Z,21.8
2022-08-01T07:06:05.148Z,21.9
2022-08-01T07:07:05.142Z,21.9
2022-08-01T07:08:05.161Z,21.9
2022-08-01T07:09:10.801Z,22
2022-08-01T07:10:05.143Z,21.9
2022-08-01T07:11:05.192Z,21.9
2022-08-01T07:12:05.455Z,21.9
2022-08-01T07:13:05.585Z,21.9
2022-08-01T07:14:05.146Z,22
2022-08-01T07:15:05.151Z,21.9
2022-08-01T07:16:05.146Z,21.9
2022-08-01T07:17:05.145Z,22
2022-08-01T07:18:05.212Z,22
2022-08-01T07:19:05.151Z,22.1
2022-08-01T07:20:05.148Z,22.1
2022-08-01T07:21:05.152Z,22.2
2022-08-01T07:22:05.537Z,22.2
2022-08-01T07:23:05.160Z,22.3
2022-08-01T07:24:09.214Z,22.4
2022-08-01T07:25:05.222Z,22.4
2022-08-01T07:26:05.157Z,22.4
2022-08-01T07:27:24.196Z,22.5
2022-08-01T07:28:05.155Z,22.5
2022-08-01T07:29:05.154Z,22.5
2022-08-01T07:30:05.163Z,22.6
2022-08-01T07:31:05.156Z,22.6
2022-08-01T07:32:05.507Z,22.6
2022-08-01T07:33:05.161Z,22.6
2022-08-01T07:34:05.152Z,22.7
2022-08-01T07:35:05.162Z,22.7
2022-08-01T07:36:05.176Z,22.7
2022-08-01T07:37:05.173Z,22.8
2022-08-01T07:38:07.757Z,22.8
2022-08-01T07:39:05.218Z,22.8
2022-08-01T07:40:05.171Z,22.8
2022-08-01T07:41:05.168Z,22.8
2022-08-01T07:42:06.605Z,22.9
2022-08-01T07:43:05.169Z,23
2022-08-01T07:44:05.171Z,23
2022-08-01T07:45:05.167Z,23
2022-08-01T07:46:05.225Z,23
2022-08-01T07:47:05.975Z,23.1
2022-08-01T07:48:08.877Z,23.1
2022-08-01T07:49:05.232Z,23.2
2022-08-01T07:50:05.162Z,23.3
2022-08-01T07:51:05.180Z,23.3
2022-08-01T07:52:05.170Z,23.4
2022-08-01T07:53:05.233Z,23.4
2022-08-01T07:54:05.168Z,23.5
2022-08-01T07:55:05.180Z,23.5
2022-08-01T07:56:05.187Z,23.4
2022-08-01T07:57:05.170Z,23.3
2022-08-01T07:58:05.181Z,23.4
2022-08-01T07:59:05.188Z,23.4
2022-08-01T08:00:05.179Z,23.5
2022-08-01T08:01:05.182Z,23.6
2022-08-01T08:02:05.599Z,23.7
2022-08-01T08:03:05.189Z,23.8
2022-08-01T08:04:05.172Z,23.9
2022-08-01T08:05:05.175Z,23.8
2022-08-01T08:06:05.179Z,23.8
2022-08-01T08:07:05.573Z,23.9
2022-08-01T08:08:05.180Z,23.8
2022-08-01T08:09:05.181Z,23.8
2022-08-01T08:10:05.185Z,23.8
2022-08-01T08:11:05.190Z,23.8
2022-08-01T08:12:05.543Z,23.8
2022-08-01T08:13:05.190Z,23.7
2022-08-01T08:14:05.186Z,23.7
2022-08-01T08:16:05.188Z,23.7
2022-08-01T08:17:05.200Z,23.7
2022-08-01T08:18:05.186Z,23.7
2022-08-01T08:19:05.180Z,23.7
2022-08-01T08:20:05.190Z,23.6
2022-08-01T08:21:06.906Z,23.6
2022-08-01T08:22:05.531Z,23.6
2022-08-01T08:23:05.208Z,23.5
2022-08-01T08:24:05.198Z,23.5
2022-08-01T08:25:05.209Z,23.5
2022-08-01T08:26:05.194Z,23.5
2022-08-01T08:27:05.207Z,23.5
2022-08-01T08:28:05.247Z,23.5
2022-08-01T08:29:05.190Z,23.5
2022-08-01T08:30:05.205Z,23.6
2022-08-01T08:31:05.198Z,23.7
2022-08-01T08:32:05.517Z,23.7
2022-08-01T08:33:05.202Z,23.8
2022-08-01T08:34:05.209Z,24
2022-08-01T08:35:05.202Z,24.2
2022-08-01T08:36:05.197Z,24.2
2022-08-01T08:37:05.209Z,24.3
2022-08-01T08:38:05.204Z,24.5
2022-08-01T08:39:05.207Z,24.5
2022-08-01T08:40:05.203Z,24.5
2022-08-01T08:41:05.210Z,24.5
2022-08-01T08:42:05.618Z,24.4
2022-08-01T08:43:05.210Z,24.4
2022-08-01T08:44:05.268Z,24.5
2022-08-01T08:45:05.244Z,24.5
2022-08-01T08:46:05.236Z,24.5
2022-08-01T08:47:05.259Z,24.5
2022-08-01T08:48:05.233Z,24.6
2022-08-01T08:49:05.285Z,24.5
2022-08-01T08:50:05.215Z,24.6
2022-08-01T08:51:05.209Z,24.6
2022-08-01T08:52:05.704Z,24.7
2022-08-01T08:53:06.592Z,24.7
2022-08-01T08:54:05.257Z,24.8
2022-08-01T08:55:05.220Z,24.8
2022-08-01T08:56:05.213Z,24.8
2022-08-01T08:57:05.231Z,24.9
2022-08-01T08:58:05.213Z,24.8
2022-08-01T08:59:05.220Z,24.8
2022-08-01T09:00:05.226Z,24.8
2022-08-01T09:01:05.302Z,24.6
2022-08-01T09:02:07.790Z,24.7
2022-08-01T09:03:05.270Z,24.7
2022-08-01T09:04:05.232Z,24.8
2022-08-01T09:05:05.219Z,24.8
2022-08-01T09:06:05.236Z,24.8
2022-08-01T09:07:05.236Z,24.8
2022-08-01T09:08:05.279Z,24.8
2022-08-01T09:09:05.218Z,24.8
2022-08-01T09:10:05.235Z,24.7
2022-08-01T09:11:05.220Z,24.7
2022-08-01T09:12:05.235Z,24.7
2022-08-01T09:13:05.229Z,24.7
2022-08-01T09:14:05.230Z,24.7
2022-08-01T09:15:05.297Z,24.8
2022-08-01T09:16:05.233Z,24.8
2022-08-01T09:17:05.254Z,24.7
2022-08-01T09:18:05.242Z,24.8
2022-08-01T09:19:05.242Z,24.9
2022-08-01T09:20:05.224Z,25
2022-08-01T09:21:05.248Z,25.2
2022-08-01T09:22:05.527Z,25.3
2022-08-01T09:23:05.238Z,25.3
2022-08-01T09:24:05.232Z,25.3
2022-08-01T09:25:05.236Z,25.4
2022-08-01T09:26:05.235Z,25.5
2022-08-01T09:27:05.237Z,25.7
2022-08-01T09:28:05.232Z,25.8
2022-08-01T09:29:05.603Z,25.9
2022-08-01T09:30:05.240Z,25.9
2022-08-01T09:31:05.239Z,26
2022-08-01T09:32:05.704Z,25.8
2022-08-01T09:33:11.468Z,25.9
2022-08-01T09:34:05.242Z,25.9
2022-08-01T09:35:05.239Z,25.9
2022-08-01T09:36:05.256Z,26
2022-08-01T09:37:05.747Z,26
2022-08-01T09:38:05.256Z,26.1
2022-08-01T09:39:05.258Z,26.1
2022-08-01T09:40:05.239Z,26
2022-08-01T09:41:05.301Z,26.1
2022-08-01T09:42:05.250Z,26.2
2022-08-01T09:43:05.243Z,26.3
2022-08-01T09:44:05.250Z,26.5
2022-08-01T09:45:05.249Z,26.6
2022-08-01T09:46:05.254Z,26.6
2022-08-01T09:47:07.955Z,26.5
2022-08-01T09:48:05.255Z,26.5
2022-08-01T09:49:07.402Z,26.4
2022-08-01T09:50:10.512Z,26.2
2022-08-01T09:51:09.484Z,26.2
2022-08-01T09:52:05.256Z,26
2022-08-01T09:53:05.265Z,25.9
2022-08-01T09:54:05.259Z,25.8
2022-08-01T09:55:05.295Z,25.8
2022-08-01T09:56:05.258Z,25.7
2022-08-01T09:57:05.435Z,25.8
2022-08-01T09:58:05.251Z,25.9
2022-08-01T09:59:05.254Z,26.1
2022-08-01T10:00:05.272Z,26.3
2022-08-01T10:01:05.259Z,26.4
2022-08-01T10:02:05.321Z,26.6
2022-08-01T10:03:10.304Z,26.6
2022-08-01T10:04:05.261Z,26.8
2022-08-01T10:05:08.153Z,26.9
2022-08-01T10:06:05.272Z,27
2022-08-01T10:07:05.696Z,27
2022-08-01T10:08:07.915Z,27
2022-08-01T10:09:05.325Z,26.9
2022-08-01T10:11:05.262Z,27
2022-08-01T10:12:05.272Z,26.7
2022-08-01T10:13:05.267Z,26.5
2022-08-01T10:14:05.272Z,26.2
2022-08-01T10:15:05.273Z,26
2022-08-01T10:16:05.352Z,25.8
2022-08-01T10:17:05.790Z,25.5
2022-08-01T10:18:05.271Z,25.4
2022-08-01T10:19:05.276Z,25.4
2022-08-01T10:20:05.274Z,25.3
2022-08-01T10:21:08.740Z,25.3
2022-08-01T10:22:05.277Z,25.3
2022-08-01T10:23:06.435Z,25.3
2022-08-01T10:24:05.268Z,25.2
2022-08-01T10:25:05.277Z,25.3
2022-08-01T10:26:05.273Z,25.4
2022-08-01T10:27:05.443Z,25.5
2022-08-01T10:28:05.288Z,25.8
2022-08-01T10:29:05.288Z,26.1
2022-08-01T10:30:15.533Z,26.3
2022-08-01T10:31:05.386Z,26.6
2022-08-01T10:32:05.673Z,26.8
2022-08-01T10:33:05.793Z,27
2022-08-01T10:34:05.283Z,27.2
2022-08-01T10:35:06.703Z,27.4
2022-08-01T10:36:08.454Z,27.5
2022-08-01T10:37:05.801Z,27.4
2022-08-01T10:38:05.921Z,27.4
2022-08-01T10:39:05.276Z,27.3
2022-08-01T10:40:28.751Z,27.2
2022-08-01T10:41:06.533Z,26.7
2022-08-01T10:42:10.513Z,26.7
2022-08-01T10:43:05.290Z,26.6
2022-08-01T10:44:05.290Z,26.6
2022-08-01T10:45:05.288Z,26.5
2022-08-01T10:46:05.340Z,26.3
2022-08-01T10:47:05.562Z,26.2
2022-08-01T10:48:05.307Z,26.1
2022-08-01T10:49:05.373Z,25.9
2022-08-01T10:50:05.290Z,25.8
2022-08-01T10:51:05.359Z,25.6
2022-08-01T10:52:05.290Z,25.4
2022-08-01T10:53:05.624Z,25.2
2022-08-01T10:54:05.291Z,25.1
2022-08-01T10:55:05.295Z,25
2022-08-01T10:56:05.297Z,25
2022-08-01T10:57:05.710Z,24.9
2022-08-01T10:58:05.332Z,24.8
2022-08-01T10:59:06.682Z,24.8
2022-08-01T11:00:05.311Z,24.8
2022-08-01T11:01:05.367Z,24.8
2022-08-01T11:02:05.320Z,24.8
2022-08-01T11:03:05.301Z,24.9
2022-08-01T11:04:05.319Z,25.1
2022-08-01T11:06:05.304Z,25.4
2022-08-01T11:07:05.896Z,25.7
2022-08-01T11:08:05.296Z,25.8
2022-08-01T11:09:05.886Z,25.9
2022-08-01T11:10:05.306Z,25.9
2022-08-01T11:11:05.312Z,25.9
2022-08-01T11:12:06.051Z,26
2022-08-01T11:13:05.317Z,26.2
2022-08-01T11:14:05.305Z,26
2022-08-01T11:15:05.324Z,26.3
2022-08-01T11:16:05.886Z,26.4
2022-08-01T11:17:05.614Z,26.4
2022-08-01T11:18:05.360Z,26.3
2022-08-01T11:19:05.323Z,26.4
2022-08-01T11:20:05.315Z,26.5
2022-08-01T11:21:57.199Z,26.4
2022-08-01T11:22:05.309Z,26.4
2022-08-01T11:23:05.310Z,26.4
2022-08-01T11:24:05.365Z,26.4
2022-08-01T11:25:05.316Z,26.6
2022-08-01T11:26:10.466Z,26.7
2022-08-01T11:27:05.572Z,26.8
2022-08-01T11:28:05.314Z,26.8
2022-08-01T11:29:19.947Z,26.8
2022-08-01T11:30:05.336Z,26.8
2022-08-01T11:31:07.625Z,26.7
2022-08-01T11:32:05.331Z,26.7
2022-08-01T11:33:11.487Z,26.7
2022-08-01T11:34:05.334Z,26.7
2022-08-01T11:35:05.326Z,26.7
2022-08-01T11:36:05.322Z,26.8
2022-08-01T11:38:05.359Z,26.7
2022-08-01T11:39:05.337Z,26.7
2022-08-01T11:40:05.330Z,26.7
2022-08-01T11:41:05.317Z,26.7
2022-08-01T11:42:05.323Z,26.7
2022-08-01T11:43:05.327Z,26.7
2022-08-01T11:44:05.368Z,26.8
2022-08-01T11:45:05.389Z,26.8
2022-08-01T11:46:05.340Z,26.8
2022-08-01T11:47:09.848Z,26.9
2022-08-01T11:48:05.329Z,26.9
2022-08-01T11:49:05.349Z,26.9
2022-08-01T11:50:05.337Z,26.9
2022-08-01T11:51:05.322Z,27
2022-08-01T11:52:05.394Z,27
2022-08-01T11:53:05.335Z,27
2022-08-01T11:54:05.351Z,27.2
2022-08-01T11:55:05.343Z,27.4
2022-08-01T11:56:05.327Z,27.6
2022-08-01T11:57:05.821Z,27.9
2022-08-01T11:58:05.352Z,28.1
2022-08-01T11:59:05.394Z,28.2
2022-08-01T12:00:08.370Z,28.3
2022-08-01T12:01:05.344Z,28.1
2022-08-01T12:02:05.430Z,28.2
2022-08-01T12:03:05.399Z,28.2
2022-08-01T12:04:05.338Z,28.2
2022-08-01T12:05:05.335Z,28.2
2022-08-01T12:06:05.351Z,28.2
2022-08-01T12:07:05.603Z,28.3
2022-08-01T12:08:05.341Z,28.2
2022-08-01T12:09:09.252Z,28
2022-08-01T12:10:05.360Z,28
2022-08-01T12:11:06.869Z,27.8
2022-08-01T12:12:05.345Z,27.7
2022-08-01T12:13:05.402Z,27.6
2022-08-01T12:14:05.345Z,27.7
2022-08-01T12:15:05.615Z,27.7
2022-08-01T12:16:05.363Z,27.7
2022-08-01T12:17:05.494Z,27.7
2022-08-01T12:18:05.364Z,27.7
2022-08-01T12:19:05.367Z,27.8
2022-08-01T12:20:05.419Z,27.9
2022-08-01T12:21:05.361Z,28
